Aviation Digital Data Service (ADDS)

Output produced by METARs form (0153 UTC 22 June 2018)
found at http://www.aviationweather.gov/adds/metars/
 
KSIF 220135Z AUTO 00000KT 7SM RA SCT042 BKN070 OVC085 24/23 A2980 RMK AO2 P0002 T02400230